Time;durP1;ratioP1;P1;durP2;ratioP2;P2;SDS_P1;SDS_P2;PMS_P1;PMS_P2;Temp;Humidity;BMP_temperature;BMP_pressure;BME280_temperature;BME280_humidity;BME280_pressure;Samples;Min_cycle;Max_cycle;Signal;HPM_P1;HPM_P2
2023/08/31 00:00:44;;;;;;;1.88;1.20;;;11.90;99.90;;;;;;5092714;28;20151;-55
2023/08/31 00:03:10;;;;;;;1.98;1.15;;;11.80;99.90;;;;;;5094102;27;20389;-51
2023/08/31 00:05:40;;;;;;;3.35;1.38;;;11.90;99.90;;;;;;5095417;27;20047;-55
2023/08/31 00:08:06;;;;;;;3.22;1.05;;;11.80;99.90;;;;;;5095805;28;20040;-53
2023/08/31 00:10:33;;;;;;;4.20;1.10;;;11.80;99.90;;;;;;5069588;28;20518;-52
2023/08/31 00:12:58;;;;;;;6.70;1.17;;;11.80;99.90;;;;;;5075505;28;20466;-50
2023/08/31 00:15:24;;;;;;;1.65;1.30;;;11.90;99.90;;;;;;5072081;28;20043;-53
2023/08/31 00:17:50;;;;;;;2.60;1.15;;;11.90;99.90;;;;;;5074213;28;20040;-54
2023/08/31 00:20:16;;;;;;;4.40;1.20;;;11.90;99.90;;;;;;5076793;28;20110;-51
2023/08/31 00:22:41;;;;;;;2.22;1.20;;;11.90;99.90;;;;;;5075477;28;20040;-53
2023/08/31 00:25:08;;;;;;;4.10;1.70;;;11.90;99.90;;;;;;5069488;28;20044;-50
2023/08/31 00:27:36;;;;;;;7.55;1.85;;;11.80;99.90;;;;;;5073194;28;20051;-51
2023/08/31 00:30:07;;;;;;;2.45;1.58;;;11.90;99.90;;;;;;5075409;28;20263;-51
2023/08/31 00:32:34;;;;;;;4.22;1.85;;;11.90;99.90;;;;;;5069810;28;20036;-52
2023/08/31 00:34:59;;;;;;;1.52;1.40;;;11.90;99.90;;;;;;5071662;28;20111;-54
2023/08/31 00:37:25;;;;;;;5.03;1.55;;;11.80;99.90;;;;;;5072175;28;20128;-52
2023/08/31 00:39:52;;;;;;;5.43;1.70;;;11.90;99.90;;;;;;5069192;28;20051;-53
2023/08/31 00:42:18;;;;;;;5.55;1.50;;;11.80;99.90;;;;;;5071567;28;20128;-51
2023/08/31 00:44:46;;;;;;;2.33;1.40;;;11.90;99.90;;;;;;5072085;28;20085;-51
2023/08/31 00:47:13;;;;;;;4.03;1.60;;;11.90;99.90;;;;;;5070001;28;20054;-54
2023/08/31 00:49:40;;;;;;;3.97;1.73;;;11.90;99.90;;;;;;5071730;28;20040;-53
2023/08/31 00:52:06;;;;;;;2.40;1.73;;;11.90;99.90;;;;;;5070807;28;20222;-52
2023/08/31 00:54:33;;;;;;;4.88;2.20;;;11.90;99.90;;;;;;5071040;28;20526;-50
2023/08/31 00:56:59;;;;;;;3.72;2.17;;;11.80;99.90;;;;;;5072409;28;20078;-51
2023/08/31 00:59:24;;;;;;;2.72;2.08;;;11.80;99.90;;;;;;5067702;28;20090;-51
2023/08/31 01:02:06;;;;;;;3.13;1.98;;;11.80;99.90;;;;;;5069121;28;20055;-52
2023/08/31 01:04:47;;;;;;;3.67;2.20;;;11.80;99.90;;;;;;5072233;28;20024;-51
2023/08/31 01:07:39;;;;;;;3.95;2.47;;;11.80;99.90;;;;;;5064470;28;20115;-55
2023/08/31 01:10:39;;;;;;;5.95;2.55;;;11.80;99.90;;;;;;5074982;28;20147;-52
2023/08/31 01:13:19;;;;;;;4.88;2.40;;;11.80;99.90;;;;;;5086852;27;20038;-53
2023/08/31 01:15:50;;;;;;;4.05;2.50;;;11.70;99.90;;;;;;5085408;27;20048;-49
2023/08/31 01:18:21;;;;;;;4.22;2.55;;;11.70;99.90;;;;;;5088867;28;20052;-53
2023/08/31 01:20:51;;;;;;;5.00;2.30;;;11.70;99.90;;;;;;5073098;28;20566;-51
2023/08/31 01:23:19;;;;;;;5.05;2.00;;;11.60;99.90;;;;;;5089755;28;20516;-52
2023/08/31 01:25:48;;;;;;;4.72;2.42;;;11.60;99.90;;;;;;5090892;27;20063;-51
2023/08/31 01:28:14;;;;;;;7.53;2.30;;;11.60;99.90;;;;;;5094928;28;20043;-54
2023/08/31 01:30:40;;;;;;;2.65;2.20;;;11.60;99.90;;;;;;5091732;28;20229;-53
2023/08/31 01:33:06;;;;;;;4.78;2.10;;;11.50;99.90;;;;;;5075662;27;20048;-52
2023/08/31 01:35:50;;;;;;;5.03;2.00;;;11.50;99.90;;;;;;5091556;27;20047;-55
2023/08/31 01:38:19;;;;;;;4.10;2.03;;;11.50;99.90;;;;;;5075056;28;20047;-54
2023/08/31 01:40:54;;;;;;;5.07;1.80;;;11.50;99.90;;;;;;5090855;27;20035;-50
2023/08/31 01:43:22;;;;;;;3.70;2.03;;;11.50;99.90;;;;;;5091652;27;20118;-52
2023/08/31 01:45:48;;;;;;;2.97;1.80;;;11.40;99.90;;;;;;5091813;28;20039;-51
2023/08/31 01:48:15;;;;;;;4.65;1.70;;;11.40;99.90;;;;;;5093157;27;20036;-52
2023/08/31 01:50:41;;;;;;;3.83;1.88;;;11.40;99.90;;;;;;5074463;28;20089;-52
2023/08/31 01:53:07;;;;;;;6.07;1.85;;;11.40;99.90;;;;;;5093010;27;20065;-53
2023/08/31 01:55:33;;;;;;;3.63;1.58;;;11.40;99.90;;;;;;5089628;28;20071;-53
2023/08/31 01:57:59;;;;;;;4.18;1.85;;;11.40;99.90;;;;;;5088284;27;20040;-50
2023/08/31 02:00:26;;;;;;;3.78;1.70;;;11.40;99.90;;;;;;5089260;27;20057;-50
2023/08/31 02:02:51;;;;;;;2.65;1.63;;;11.40;99.90;;;;;;5087967;28;20342;-53
2023/08/31 02:05:17;;;;;;;7.20;1.67;;;11.30;99.90;;;;;;5088764;27;20036;-50
2023/08/31 02:07:43;;;;;;;3.53;1.80;;;11.30;99.90;;;;;;5069173;28;20657;-50
2023/08/31 02:10:09;;;;;;;5.22;1.95;;;11.30;99.90;;;;;;5088286;28;20135;-51
2023/08/31 02:12:38;;;;;;;5.43;1.60;;;11.30;99.90;;;;;;5086276;27;20101;-52
2023/08/31 02:15:05;;;;;;;3.75;1.98;;;11.20;99.90;;;;;;5093266;27;20471;-50
2023/08/31 02:17:31;;;;;;;4.20;1.80;;;11.20;99.90;;;;;;5072126;28;20140;-50
2023/08/31 02:19:57;;;;;;;2.95;1.70;;;11.30;99.90;;;;;;5085671;28;20039;-51
2023/08/31 02:22:23;;;;;;;3.97;1.70;;;11.20;99.90;;;;;;5089290;28;20112;-54
2023/08/31 02:24:49;;;;;;;3.22;1.52;;;11.20;99.90;;;;;;5085600;28;20035;-53
2023/08/31 02:27:15;;;;;;;5.55;1.50;;;11.20;99.90;;;;;;5083737;27;20392;-53
2023/08/31 02:29:40;;;;;;;1.90;1.45;;;11.20;99.90;;;;;;5082170;28;20592;-51
2023/08/31 02:32:06;;;;;;;2.38;1.75;;;11.30;99.90;;;;;;5088931;28;20047;-55
2023/08/31 02:34:32;;;;;;;3.75;1.73;;;11.20;99.90;;;;;;5086645;27;20036;-50
2023/08/31 02:36:58;;;;;;;5.57;1.70;;;11.20;99.90;;;;;;5086525;27;20047;-50
2023/08/31 02:39:24;;;;;;;2.28;1.30;;;11.20;99.90;;;;;;5087943;28;20090;-52
2023/08/31 02:41:50;;;;;;;2.83;1.58;;;11.20;99.90;;;;;;5086279;28;20711;-51
2023/08/31 02:44:15;;;;;;;4.60;1.50;;;11.20;99.90;;;;;;5091114;28;20036;-50
2023/08/31 02:46:41;;;;;;;3.78;1.48;;;11.20;99.90;;;;;;5070035;28;20032;-53
2023/08/31 02:49:07;;;;;;;4.03;1.67;;;11.20;99.90;;;;;;5085604;28;20071;-51
2023/08/31 02:51:32;;;;;;;4.18;1.67;;;11.20;99.90;;;;;;5086246;28;20451;-48
2023/08/31 02:53:58;;;;;;;3.58;1.50;;;11.20;99.90;;;;;;5089351;28;20674;-54
2023/08/31 02:56:24;;;;;;;5.07;1.77;;;11.20;99.90;;;;;;5088106;28;20043;-52
2023/08/31 02:58:49;;;;;;;3.03;1.63;;;11.20;99.90;;;;;;5085377;28;20612;-55
2023/08/31 03:01:15;;;;;;;5.28;1.67;;;11.30;99.90;;;;;;5084145;28;20167;-52
2023/08/31 03:03:42;;;;;;;2.63;1.30;;;11.20;99.90;;;;;;5089147;28;20043;-51
2023/08/31 03:06:09;;;;;;;4.88;1.45;;;11.20;99.90;;;;;;5089341;28;20039;-52
2023/08/31 03:08:36;;;;;;;3.28;1.23;;;11.20;99.90;;;;;;5082398;28;20181;-53
2023/08/31 03:11:03;;;;;;;3.53;1.20;;;11.20;99.90;;;;;;5090022;28;20131;-53
2023/08/31 03:13:28;;;;;;;2.90;1.25;;;11.20;99.90;;;;;;5090562;28;20036;-50
2023/08/31 03:15:56;;;;;;;2.30;1.20;;;11.20;99.90;;;;;;5080622;28;20070;-50
2023/08/31 03:18:22;;;;;;;3.85;1.23;;;11.20;99.90;;;;;;5074956;28;20051;-51
2023/08/31 03:20:48;;;;;;;1.83;1.45;;;11.10;99.90;;;;;;5046311;28;20044;-52
2023/08/31 03:23:14;;;;;;;2.80;1.33;;;11.10;99.90;;;;;;5087991;28;20070;-51
2023/08/31 03:25:40;;;;;;;2.05;1.20;;;11.10;99.90;;;;;;5071158;28;20035;-49
2023/08/31 03:28:05;;;;;;;3.28;1.30;;;11.20;99.90;;;;;;5090103;28;20382;-55
2023/08/31 03:30:31;;;;;;;2.75;1.20;;;11.10;99.90;;;;;;5091809;28;20102;-51
2023/08/31 03:32:57;;;;;;;1.52;1.00;;;11.10;99.90;;;;;;5057855;28;20468;-53
2023/08/31 03:35:26;;;;;;;5.22;1.50;;;11.20;99.90;;;;;;5094677;27;20039;-53
2023/08/31 03:37:53;;;;;;;3.22;1.30;;;11.10;99.90;;;;;;5097514;27;20078;-54
2023/08/31 03:40:19;;;;;;;4.78;1.30;;;11.10;99.90;;;;;;5098778;28;20496;-56
2023/08/31 03:42:45;;;;;;;2.85;1.30;;;11.10;99.90;;;;;;5094376;27;20048;-54
2023/08/31 03:45:11;;;;;;;3.17;1.00;;;11.10;99.90;;;;;;5096514;27;20541;-52
2023/08/31 03:47:37;;;;;;;2.40;1.17;;;11.10;99.90;;;;;;5095232;28;20044;-53
2023/08/31 03:50:03;;;;;;;1.35;0.93;;;11.10;99.90;;;;;;5096061;28;20047;-53
2023/08/31 03:52:29;;;;;;;2.50;0.93;;;11.10;99.90;;;;;;5082539;28;20071;-53
2023/08/31 03:54:55;;;;;;;2.58;1.00;;;11.10;99.90;;;;;;5078034;28;20119;-50
2023/08/31 03:57:21;;;;;;;2.42;1.23;;;11.10;99.90;;;;;;5092044;28;20511;-54
2023/08/31 03:59:47;;;;;;;3.58;1.10;;;11.10;99.90;;;;;;5094232;27;20155;-52
2023/08/31 04:02:13;;;;;;;3.15;1.10;;;11.10;99.90;;;;;;5058467;28;20417;-56
2023/08/31 04:04:38;;;;;;;2.72;1.10;;;11.10;99.90;;;;;;5092793;27;20032;-52
2023/08/31 04:07:06;;;;;;;2.78;1.20;;;11.10;99.90;;;;;;5089493;28;20036;-50
2023/08/31 04:09:32;;;;;;;2.63;1.20;;;11.00;99.90;;;;;;5087217;28;20040;-53
2023/08/31 04:11:58;;;;;;;4.05;1.00;;;11.00;99.90;;;;;;5090545;28;20050;-55
2023/08/31 04:14:26;;;;;;;4.95;1.10;;;11.00;99.90;;;;;;5090891;28;20394;-50
2023/08/31 04:16:52;;;;;;;5.03;1.20;;;11.00;99.90;;;;;;5057362;28;20512;-53
2023/08/31 04:19:17;;;;;;;2.08;1.27;;;11.00;99.90;;;;;;5090453;28;20480;-50
2023/08/31 04:21:43;;;;;;;2.17;1.30;;;11.00;99.90;;;;;;5072203;28;20043;-54
2023/08/31 04:24:10;;;;;;;6.78;1.20;;;11.00;99.90;;;;;;5070964;28;20032;-55
2023/08/31 04:26:35;;;;;;;3.00;1.20;;;11.00;99.90;;;;;;5091226;28;20048;-52
2023/08/31 04:29:03;;;;;;;4.30;1.35;;;11.00;99.90;;;;;;5090485;28;20100;-53
2023/08/31 04:31:29;;;;;;;3.95;1.20;;;11.00;99.90;;;;;;5090973;28;20046;-55
2023/08/31 04:33:55;;;;;;;3.95;1.50;;;11.00;99.90;;;;;;5090293;28;20044;-54
2023/08/31 04:36:21;;;;;;;4.13;1.17;;;11.00;99.90;;;;;;5089154;28;20616;-51
2023/08/31 04:38:48;;;;;;;3.20;1.10;;;10.90;99.90;;;;;;5090047;28;20048;-54
2023/08/31 04:41:15;;;;;;;4.95;1.30;;;10.90;99.90;;;;;;5078573;28;20048;-52
2023/08/31 04:43:41;;;;;;;4.45;1.27;;;10.90;99.90;;;;;;5073211;28;20082;-52
2023/08/31 04:46:06;;;;;;;4.68;1.20;;;10.90;99.90;;;;;;5084849;28;20040;-56
2023/08/31 04:48:32;;;;;;;6.38;2.00;;;10.90;99.90;;;;;;5081666;28;20036;-52
2023/08/31 04:50:58;;;;;;;6.18;1.60;;;10.80;99.90;;;;;;5089548;28;20038;-53
2023/08/31 04:53:24;;;;;;;4.00;1.70;;;10.80;99.90;;;;;;5084388;28;20048;-55
2023/08/31 04:55:50;;;;;;;4.18;1.70;;;10.80;99.90;;;;;;5087784;28;20096;-53
2023/08/31 04:58:16;;;;;;;3.33;1.90;;;10.80;99.90;;;;;;5086769;28;20048;-53
2023/08/31 05:00:44;;;;;;;5.13;2.03;;;10.80;99.90;;;;;;5085358;28;20099;-54
2023/08/31 05:03:10;;;;;;;5.05;1.77;;;10.80;99.90;;;;;;5089550;28;20048;-53
2023/08/31 05:05:36;;;;;;;4.10;1.90;;;10.80;99.90;;;;;;5070694;28;20091;-53
2023/08/31 05:08:03;;;;;;;4.32;2.00;;;10.80;99.90;;;;;;5088433;28;20099;-54
2023/08/31 05:10:29;;;;;;;5.68;1.83;;;10.80;99.90;;;;;;5088007;28;20062;-54
2023/08/31 05:12:54;;;;;;;3.00;1.70;;;10.80;99.90;;;;;;5070122;27;20854;-54
2023/08/31 05:15:20;;;;;;;4.35;1.80;;;10.80;99.90;;;;;;5077962;28;20043;-54
2023/08/31 05:17:48;;;;;;;3.47;1.90;;;10.80;99.90;;;;;;5088499;27;20122;-52
2023/08/31 05:20:14;;;;;;;4.43;1.95;;;10.80;99.90;;;;;;5094264;28;20134;-52
2023/08/31 05:22:40;;;;;;;7.25;2.20;;;10.80;99.90;;;;;;5088515;27;20145;-53
2023/08/31 05:25:06;;;;;;;4.13;1.85;;;10.80;99.90;;;;;;5087685;27;20035;-54
2023/08/31 05:27:32;;;;;;;6.15;2.15;;;10.80;99.90;;;;;;5087404;28;20124;-53
2023/08/31 05:29:57;;;;;;;4.63;1.80;;;10.80;99.90;;;;;;5071710;28;20512;-54
2023/08/31 05:32:23;;;;;;;3.28;1.95;;;10.80;99.90;;;;;;5083934;27;20048;-54
2023/08/31 05:34:49;;;;;;;3.63;1.90;;;10.90;99.90;;;;;;5087339;27;20032;-54
2023/08/31 05:37:14;;;;;;;4.70;1.73;;;10.90;99.90;;;;;;5088921;27;20040;-51
2023/08/31 05:39:40;;;;;;;4.78;1.70;;;10.90;99.90;;;;;;5092478;28;20040;-53
2023/08/31 05:42:06;;;;;;;4.35;1.70;;;10.90;99.90;;;;;;5086369;28;20490;-54
2023/08/31 05:44:32;;;;;;;3.20;1.50;;;11.00;99.90;;;;;;5088184;27;20058;-53
2023/08/31 05:46:57;;;;;;;6.47;2.13;;;11.00;99.90;;;;;;5085121;27;20044;-53
2023/08/31 05:49:23;;;;;;;3.10;1.88;;;11.00;99.90;;;;;;5089784;28;20066;-55
2023/08/31 05:51:50;;;;;;;2.85;1.40;;;11.10;99.90;;;;;;5094203;27;20031;-54
2023/08/31 05:54:16;;;;;;;4.72;1.73;;;11.10;99.90;;;;;;5086203;28;20044;-55
2023/08/31 05:56:42;;;;;;;5.00;1.92;;;11.20;99.90;;;;;;5091604;28;20035;-55
2023/08/31 05:59:08;;;;;;;4.15;1.70;;;11.20;99.90;;;;;;5071468;27;20036;-52
2023/08/31 06:01:37;;;;;;;8.73;2.08;;;11.30;99.90;;;;;;5085068;28;20040;-54
2023/08/31 06:04:03;;;;;;;4.45;1.92;;;11.40;99.90;;;;;;5089291;27;20040;-54
2023/08/31 06:06:29;;;;;;;4.25;1.70;;;11.40;99.90;;;;;;5089902;28;20039;-53
2023/08/31 06:08:56;;;;;;;6.45;1.88;;;11.60;99.90;;;;;;5087549;27;20088;-55
2023/08/31 06:11:22;;;;;;;7.78;2.10;;;11.70;99.90;;;;;;5088876;28;20048;-54
2023/08/31 06:13:48;;;;;;;8.13;1.90;;;11.80;99.90;;;;;;5086562;28;20035;-58
2023/08/31 06:16:14;;;;;;;5.40;1.98;;;11.90;99.90;;;;;;5080876;28;20517;-60
2023/08/31 06:18:39;;;;;;;8.57;2.15;;;11.90;99.90;;;;;;5088020;28;20032;-58
2023/08/31 06:21:05;;;;;;;10.98;2.20;;;12.00;99.90;;;;;;5073029;28;20035;-58
2023/08/31 06:23:31;;;;;;;4.60;1.63;;;12.10;99.90;;;;;;5094342;28;20400;-59
2023/08/31 06:25:56;;;;;;;5.90;2.40;;;12.20;99.90;;;;;;5092692;28;20042;-59
2023/08/31 06:28:22;;;;;;;6.88;1.88;;;12.20;99.90;;;;;;5092601;28;20146;-60
2023/08/31 06:30:48;;;;;;;5.93;1.88;;;12.30;99.90;;;;;;5090563;28;20028;-59
2023/08/31 06:33:14;;;;;;;4.55;1.83;;;12.40;99.90;;;;;;5094329;28;20498;-60
2023/08/31 06:35:40;;;;;;;4.93;1.80;;;12.40;99.90;;;;;;5074512;28;20055;-60
2023/08/31 06:38:07;;;;;;;4.20;1.70;;;12.50;99.90;;;;;;5088028;28;20093;-58
2023/08/31 06:40:33;;;;;;;4.43;1.80;;;12.50;99.90;;;;;;5089093;28;20123;-58
2023/08/31 06:42:59;;;;;;;4.95;1.80;;;12.60;99.90;;;;;;5093550;28;20040;-57
2023/08/31 06:45:25;;;;;;;3.42;1.60;;;12.70;99.90;;;;;;5092086;28;20062;-59
2023/08/31 06:47:51;;;;;;;9.25;1.90;;;12.80;99.90;;;;;;5075095;28;20036;-59
2023/08/31 06:50:16;;;;;;;6.00;1.85;;;12.90;99.90;;;;;;5075750;28;20356;-60
2023/08/31 06:52:43;;;;;;;4.65;1.67;;;13.00;99.90;;;;;;5074816;28;20056;-59
2023/08/31 06:55:10;;;;;;;6.72;1.58;;;13.10;99.90;;;;;;5075403;28;20770;-61
2023/08/31 06:57:37;;;;;;;4.57;1.70;;;13.10;99.90;;;;;;5091800;28;20067;-59
2023/08/31 07:00:04;;;;;;;2.83;1.52;;;13.20;99.90;;;;;;5093677;28;20681;-59
2023/08/31 07:02:29;;;;;;;10.10;1.90;;;13.30;99.90;;;;;;5091816;28;20134;-60
2023/08/31 07:04:55;;;;;;;4.40;1.60;;;13.30;99.90;;;;;;5094837;28;20438;-61
2023/08/31 07:07:21;;;;;;;4.32;1.75;;;13.40;99.90;;;;;;5076493;28;20173;-59
2023/08/31 07:09:51;;;;;;;5.30;1.50;;;13.50;99.90;;;;;;5098015;28;20093;-60
2023/08/31 07:12:16;;;;;;;3.30;1.20;;;13.50;99.90;;;;;;5098071;28;20179;-60
2023/08/31 07:14:42;;;;;;;5.05;1.30;;;13.60;99.90;;;;;;5073557;28;20080;-60
2023/08/31 07:17:08;;;;;;;3.85;1.35;;;13.70;99.90;;;;;;5087686;27;20085;-59
2023/08/31 07:19:37;;;;;;;4.25;1.23;;;13.80;99.90;;;;;;5085381;27;20035;-59
2023/08/31 07:22:04;;;;;;;2.40;1.13;;;13.80;99.90;;;;;;5084517;28;20043;-57
2023/08/31 07:24:30;;;;;;;6.00;1.42;;;14.00;99.90;;;;;;5072563;27;20126;-60
2023/08/31 07:26:55;;;;;;;4.25;1.20;;;14.00;99.90;;;;;;5091127;27;20032;-59
2023/08/31 07:29:21;;;;;;;7.25;2.20;;;14.20;99.90;;;;;;5090451;27;20042;-57
2023/08/31 07:31:47;;;;;;;5.72;1.52;;;14.40;99.90;;;;;;5090449;27;20047;-58
2023/08/31 07:34:13;;;;;;;4.38;1.40;;;14.40;99.90;;;;;;5092117;27;20042;-56
2023/08/31 07:36:39;;;;;;;4.07;1.20;;;14.50;99.90;;;;;;5087684;27;20118;-58
2023/08/31 07:39:05;;;;;;;5.68;1.05;;;14.60;99.90;;;;;;5091771;27;20383;-58
2023/08/31 07:41:31;;;;;;;6.72;1.45;;;14.70;99.90;;;;;;5069897;28;20104;-58
2023/08/31 07:43:58;;;;;;;5.43;1.20;;;14.90;99.90;;;;;;5089034;27;20039;-60
2023/08/31 07:46:24;;;;;;;3.50;1.10;;;14.90;99.90;;;;;;5071014;28;20050;-60
2023/08/31 07:48:50;;;;;;;4.82;1.00;;;15.10;99.90;;;;;;5089339;28;20692;-60
2023/08/31 07:51:16;;;;;;;7.03;1.10;;;15.20;99.90;;;;;;5089234;28;20114;-59
2023/08/31 07:53:42;;;;;;;3.55;1.10;;;15.30;99.90;;;;;;5073512;28;20116;-60
2023/08/31 07:56:08;;;;;;;3.72;1.13;;;15.40;99.90;;;;;;5089313;28;20047;-58
2023/08/31 07:58:33;;;;;;;2.78;1.00;;;15.60;99.90;;;;;;5088782;28;20047;-58
2023/08/31 08:00:59;;;;;;;3.25;1.30;;;15.70;99.90;;;;;;5073537;28;21464;-59
2023/08/31 08:03:25;;;;;;;4.40;0.95;;;15.80;99.90;;;;;;5091264;28;20056;-58
2023/08/31 08:05:51;;;;;;;2.90;0.88;;;15.90;99.90;;;;;;5089584;28;20402;-60
2023/08/31 08:08:17;;;;;;;1.85;0.75;;;16.00;99.90;;;;;;5090335;27;20122;-60
2023/08/31 08:10:43;;;;;;;3.75;0.90;;;16.10;99.90;;;;;;5057763;28;20104;-60
2023/08/31 08:13:09;;;;;;;2.25;0.85;;;16.20;99.90;;;;;;5090325;28;20047;-61
2023/08/31 08:15:35;;;;;;;2.75;1.02;;;16.30;99.90;;;;;;5093102;27;20118;-58
2023/08/31 08:18:01;;;;;;;6.68;1.00;;;16.50;99.90;;;;;;5093797;27;20057;-59
2023/08/31 08:20:31;;;;;;;0.93;0.70;;;16.60;99.90;;;;;;5091521;28;20042;-60
2023/08/31 08:22:58;;;;;;;2.90;0.70;;;16.60;99.90;;;;;;5090107;27;20046;-61
2023/08/31 08:25:23;;;;;;;2.33;0.88;;;16.70;99.90;;;;;;5078139;28;20159;-60
2023/08/31 08:27:50;;;;;;;1.02;0.50;;;16.80;99.90;;;;;;5068149;28;20394;-61
2023/08/31 08:30:16;;;;;;;2.75;0.80;;;16.90;99.90;;;;;;5075445;28;20039;-58
2023/08/31 08:32:42;;;;;;;6.47;0.63;;;17.00;99.90;;;;;;5090558;27;20047;-59
2023/08/31 08:35:08;;;;;;;4.43;0.70;;;17.10;99.90;;;;;;5091023;27;20564;-60
2023/08/31 08:37:34;;;;;;;2.30;0.70;;;17.10;99.90;;;;;;5086811;28;20050;-59
2023/08/31 08:40:00;;;;;;;2.60;0.70;;;17.20;99.90;;;;;;5067619;28;20395;-60
2023/08/31 08:42:29;;;;;;;2.38;0.95;;;17.20;99.90;;;;;;5088036;27;20177;-59
2023/08/31 08:44:57;;;;;;;3.75;0.98;;;17.40;99.90;;;;;;5070319;28;20036;-58
2023/08/31 08:47:24;;;;;;;4.45;0.70;;;17.50;99.90;;;;;;5069900;28;20132;-57
2023/08/31 08:49:50;;;;;;;3.15;0.70;;;17.60;99.90;;;;;;5090020;27;20071;-61
2023/08/31 08:52:16;;;;;;;5.97;0.70;;;17.60;99.90;;;;;;5088661;28;20768;-60
2023/08/31 08:54:42;;;;;;;3.05;0.60;;;17.50;99.90;;;;;;5072904;28;20044;-57
2023/08/31 08:57:07;;;;;;;5.03;0.80;;;17.50;99.90;;;;;;5090418;27;20398;-59
2023/08/31 08:59:33;;;;;;;1.42;0.60;;;17.60;99.90;;;;;;5092769;27;20119;-59
2023/08/31 09:01:59;;;;;;;2.13;0.63;;;17.80;99.90;;;;;;5094264;27;20051;-59
2023/08/31 09:04:25;;;;;;;4.80;0.47;;;17.90;99.90;;;;;;5080829;28;20146;-61
2023/08/31 09:06:51;;;;;;;1.75;0.50;;;17.80;99.90;;;;;;5096052;28;20165;-58
2023/08/31 09:09:17;;;;;;;7.40;1.17;;;17.50;99.90;;;;;;5098711;27;20031;-61
2023/08/31 09:11:44;;;;;;;1.92;0.60;;;17.30;99.90;;;;;;5086650;28;20053;-58
2023/08/31 09:14:18;;;;;;;3.67;0.73;;;17.10;99.90;;;;;;5071513;28;20043;-61
2023/08/31 09:16:46;;;;;;;4.95;0.75;;;17.20;99.90;;;;;;5088427;27;20055;-62
2023/08/31 09:19:23;;;;;;;2.05;0.50;;;17.20;99.90;;;;;;5086719;27;20074;-60
2023/08/31 09:21:50;;;;;;;3.22;0.90;;;17.40;99.90;;;;;;5090352;27;20044;-61
2023/08/31 09:24:17;;;;;;;1.35;0.65;;;17.60;99.90;;;;;;5087653;28;20048;-58
2023/08/31 09:26:46;;;;;;;3.72;0.65;;;17.80;99.90;;;;;;5090338;27;20521;-61
2023/08/31 09:29:12;;;;;;;3.28;0.70;;;18.00;99.90;;;;;;5092436;27;20035;-61
2023/08/31 09:31:41;;;;;;;1.83;0.70;;;18.20;99.90;;;;;;5074922;28;20499;-62
2023/08/31 09:34:09;;;;;;;1.63;0.73;;;18.40;99.90;;;;;;5091949;27;20043;-60
2023/08/31 09:36:36;;;;;;;3.22;0.75;;;18.60;99.90;;;;;;5094199;27;20082;-61
2023/08/31 09:39:02;;;;;;;1.00;0.73;;;18.80;99.90;;;;;;5093421;27;20035;-59
2023/08/31 09:41:28;;;;;;;1.45;0.60;;;19.00;99.90;;;;;;5094953;27;20046;-61
2023/08/31 09:43:54;;;;;;;1.45;0.60;;;19.20;99.90;;;;;;5092961;28;20040;-61
2023/08/31 09:46:21;;;;;;;1.13;0.40;;;19.10;99.90;;;;;;5095398;27;20043;-61
2023/08/31 09:48:48;;;;;;;2.05;0.65;;;18.80;99.90;;;;;;5094512;28;20074;-61
2023/08/31 09:51:17;;;;;;;1.58;0.70;;;18.50;99.90;;;;;;5094658;27;20073;-61
2023/08/31 09:53:47;;;;;;;1.73;0.77;;;18.50;99.90;;;;;;5092747;28;20032;-60
2023/08/31 09:56:20;;;;;;;2.40;0.50;;;18.50;99.90;;;;;;5094314;28;20252;-61
2023/08/31 09:58:47;;;;;;;2.78;0.65;;;18.70;99.90;;;;;;5079376;28;20047;-61
2023/08/31 10:01:13;;;;;;;0.93;0.63;;;18.90;99.90;;;;;;5081455;28;20032;-59
2023/08/31 10:03:40;;;;;;;1.70;1.17;;;19.20;99.90;;;;;;5076344;28;20525;-62
2023/08/31 10:06:06;;;;;;;1.58;0.70;;;19.30;99.90;;;;;;5076879;28;20048;-62
2023/08/31 10:08:33;;;;;;;3.75;0.90;;;19.40;99.90;;;;;;5094355;28;20044;-61
2023/08/31 10:11:05;;;;;;;4.18;1.00;;;19.40;99.90;;;;;;5092575;27;20192;-61
2023/08/31 10:13:36;;;;;;;3.17;0.80;;;19.50;99.90;;;;;;5094151;27;20048;-61
2023/08/31 10:16:04;;;;;;;1.30;0.80;;;19.60;99.90;;;;;;5095820;28;20046;-59
2023/08/31 10:18:32;;;;;;;3.60;0.93;;;19.70;99.90;;;;;;5076698;28;20159;-60
2023/08/31 10:20:57;;;;;;;2.15;0.90;;;19.80;99.90;;;;;;5078724;28;20144;-60
2023/08/31 10:23:23;;;;;;;0.80;0.63;;;20.00;99.90;;;;;;5077328;28;20067;-60
2023/08/31 10:25:53;;;;;;;4.35;0.90;;;20.10;99.90;;;;;;5092720;28;20046;-61
2023/08/31 10:28:23;;;;;;;2.25;0.90;;;20.20;99.90;;;;;;5092972;27;20397;-61
2023/08/31 10:31:05;;;;;;;1.92;0.73;;;20.30;99.90;;;;;;5092789;28;20369;-62
2023/08/31 10:33:39;;;;;;;2.33;0.90;;;20.40;99.90;;;;;;5093885;28;20050;-61
2023/08/31 10:36:19;;;;;;;3.95;0.93;;;20.60;99.90;;;;;;5095474;28;20114;-61
2023/08/31 10:39:08;;;;;;;2.53;0.80;;;20.70;99.90;;;;;;5089420;28;20039;-60
2023/08/31 10:41:37;;;;;;;4.82;0.93;;;20.90;99.90;;;;;;5072900;28;20437;-60
2023/08/31 10:44:26;;;;;;;1.75;0.68;;;20.80;99.90;;;;;;5071128;28;20035;-60
2023/08/31 10:46:53;;;;;;;1.05;0.60;;;20.40;99.40;;;;;;5086931;28;20035;-61
2023/08/31 10:49:20;;;;;;;1.65;0.70;;;20.10;99.30;;;;;;5085555;28;20196;-61
2023/08/31 10:52:09;;;;;;;1.30;0.60;;;20.10;99.10;;;;;;5088779;28;20494;-61
2023/08/31 10:54:35;;;;;;;2.28;0.60;;;20.10;98.90;;;;;;5068882;28;20032;-62
2023/08/31 10:57:08;;;;;;;3.58;0.70;;;20.00;99.10;;;;;;5087976;28;20044;-61
2023/08/31 10:59:53;;;;;;;1.58;0.70;;;19.80;99.60;;;;;;5084935;28;20046;-58
2023/08/31 11:02:39;;;;;;;3.00;0.88;;;19.80;99.90;;;;;;5085110;28;20066;-59
2023/08/31 11:05:14;;;;;;;1.85;0.90;;;20.10;99.90;;;;;;5058169;28;20078;-62
2023/08/31 11:07:41;;;;;;;1.75;0.80;;;20.30;99.90;;;;;;5087493;28;20096;-61
2023/08/31 11:10:22;;;;;;;1.98;0.90;;;20.60;99.90;;;;;;5086451;28;20482;-61
2023/08/31 11:12:50;;;;;;;2.33;0.73;;;20.90;99.90;;;;;;5087562;28;20044;-61
2023/08/31 11:15:21;;;;;;;1.38;0.70;;;21.10;99.90;;;;;;5087783;28;20171;-62
2023/08/31 11:17:50;;;;;;;3.10;0.90;;;21.30;99.90;;;;;;5086393;28;20071;-59
2023/08/31 11:20:17;;;;;;;4.70;0.90;;;21.40;99.50;;;;;;5082728;28;20550;-61
2023/08/31 11:22:45;;;;;;;3.08;1.10;;;21.70;99.70;;;;;;5088207;28;21488;-59
2023/08/31 11:25:12;;;;;;;3.90;1.35;;;21.90;99.30;;;;;;5086086;28;20036;-61
2023/08/31 11:27:38;;;;;;;3.58;1.10;;;22.10;98.80;;;;;;5085818;28;20486;-60
2023/08/31 11:30:17;;;;;;;2.92;1.00;;;22.20;98.60;;;;;;5086189;28;20123;-60
2023/08/31 11:32:51;;;;;;;2.92;0.85;;;22.30;98.40;;;;;;5083059;28;20382;-59
2023/08/31 11:35:18;;;;;;;2.63;0.80;;;22.50;98.00;;;;;;5086251;28;20036;-62
2023/08/31 11:37:45;;;;;;;2.40;0.85;;;22.60;97.50;;;;;;5067170;28;20036;-61
2023/08/31 11:40:14;;;;;;;2.63;0.85;;;22.70;96.90;;;;;;5067809;28;21100;-59
2023/08/31 11:42:40;;;;;;;4.22;0.95;;;22.50;96.60;;;;;;5069067;28;20054;-61
2023/08/31 11:45:07;;;;;;;1.48;0.65;;;22.10;96.50;;;;;;5083098;28;20045;-61
2023/08/31 11:47:33;;;;;;;4.93;1.05;;;21.60;95.70;;;;;;5087402;28;20040;-59
2023/08/31 11:50:01;;;;;;;3.63;0.90;;;21.00;96.10;;;;;;5084122;28;20067;-61
2023/08/31 11:52:27;;;;;;;6.70;1.30;;;20.50;97.70;;;;;;5083880;28;20064;-61
2023/08/31 11:54:54;;;;;;;2.00;0.90;;;20.20;99.40;;;;;;5089241;27;20900;-58
2023/08/31 11:57:26;;;;;;;3.92;1.20;;;20.00;99.90;;;;;;5090230;27;20075;-61
2023/08/31 11:59:52;;;;;;;4.28;1.27;;;19.90;99.90;;;;;;5089725;27;20044;-61
2023/08/31 12:02:19;;;;;;;6.45;1.65;;;20.00;99.90;;;;;;5084376;27;21798;-58
2023/08/31 12:04:46;;;;;;;5.10;1.20;;;20.40;99.90;;;;;;5066261;28;20528;-60
2023/08/31 12:07:17;;;;;;;4.85;1.45;;;20.90;99.90;;;;;;5086721;27;20039;-61
2023/08/31 12:09:46;;;;;;;5.55;1.42;;;21.20;99.90;;;;;;5073743;28;20405;-56
2023/08/31 12:12:15;;;;;;;7.30;1.40;;;21.00;99.90;;;;;;5088671;27;20482;-60
2023/08/31 12:14:41;;;;;;;6.10;1.23;;;20.50;99.90;;;;;;5087131;28;20493;-61
2023/08/31 12:17:08;;;;;;;4.50;1.10;;;20.20;99.90;;;;;;5088034;28;20040;-58
2023/08/31 12:19:37;;;;;;;4.50;1.10;;;19.90;99.90;;;;;;5068154;27;20374;-61
2023/08/31 12:22:04;;;;;;;6.90;1.20;;;19.90;99.90;;;;;;5089082;27;20036;-58
2023/08/31 12:24:36;;;;;;;3.28;1.00;;;19.90;99.90;;;;;;5087223;27;20843;-58
2023/08/31 12:27:02;;;;;;;2.28;1.20;;;19.80;99.90;;;;;;5090613;28;20093;-58
2023/08/31 12:29:28;;;;;;;3.60;1.10;;;19.80;99.90;;;;;;5069596;28;20032;-59
2023/08/31 12:31:53;;;;;;;4.45;1.17;;;19.80;99.90;;;;;;5086512;27;20217;-57
2023/08/31 12:34:19;;;;;;;5.47;1.08;;;19.80;99.90;;;;;;5087925;28;20177;-60
2023/08/31 12:36:45;;;;;;;2.78;1.10;;;20.00;99.90;;;;;;5088783;27;20092;-62
2023/08/31 12:39:11;;;;;;;1.58;0.90;;;20.10;99.90;;;;;;5070288;28;20031;-60
2023/08/31 12:41:38;;;;;;;3.22;1.10;;;20.50;99.90;;;;;;5086773;27;20142;-60
2023/08/31 12:44:04;;;;;;;5.25;1.60;;;20.90;99.90;;;;;;5087373;27;20036;-61
2023/08/31 12:46:31;;;;;;;2.80;1.02;;;21.10;99.90;;;;;;5088172;27;20375;-61
2023/08/31 12:48:57;;;;;;;2.10;0.85;;;21.00;99.90;;;;;;5090194;27;20067;-59